createdAt,value
2022-12-15T00:02:43.393Z,26.15
2022-12-15T00:05:28.801Z,24.67
2022-12-15T00:08:14.402Z,24.63
2022-12-15T00:10:59.588Z,26.38
2022-12-15T00:13:44.950Z,26.25
2022-12-15T00:16:30.415Z,26.67
2022-12-15T00:19:15.804Z,24.27
2022-12-15T00:22:01.122Z,23.05
2022-12-15T00:24:49.609Z,24.45
2022-12-15T00:27:35.314Z,24.65
2022-12-15T00:30:21.276Z,23.92
2022-12-15T00:33:06.539Z,23.75
2022-12-15T00:35:51.942Z,23.70
2022-12-15T00:38:37.292Z,23.70
2022-12-15T00:41:04.802Z,22.83
2022-12-15T00:43:33.766Z,24.00
2022-12-15T00:46:20.728Z,23.98
2022-12-15T00:48:48.306Z,23.73
2022-12-15T00:51:16.306Z,23.00
2022-12-15T00:54:01.988Z,23.83
2022-12-15T00:56:47.866Z,23.60
2022-12-15T00:59:34.198Z,23.33
2022-12-15T01:02:20.553Z,22.10
2022-12-15T01:05:06.189Z,21.20
2022-12-15T01:07:52.180Z,23.27
2022-12-15T01:10:38.013Z,23.27
2022-12-15T01:13:24.129Z,22.13
2022-12-15T01:16:09.485Z,22.38
2022-12-15T01:18:55.105Z,22.73
2022-12-15T01:21:25.016Z,22.33
2022-12-15T01:23:52.529Z,22.48
2022-12-15T01:26:19.566Z,21.58
2022-12-15T01:28:46.537Z,21.17
2022-12-15T01:31:13.649Z,20.77
2022-12-15T01:33:42.804Z,21.50
2022-12-15T01:36:10.610Z,21.75
2022-12-15T01:38:37.750Z,20.75
2022-12-15T01:41:11.373Z,21.08
2022-12-15T01:43:40.823Z,20.52
2022-12-15T01:46:13.850Z,20.95
2022-12-15T01:48:49.187Z,21.27
2022-12-15T01:51:23.781Z,20.65
2022-12-15T01:54:06.289Z,21.02
2022-12-15T01:56:46.016Z,20.88
2022-12-15T01:59:22.415Z,21.08
2022-12-15T02:01:50.024Z,21.52
2022-12-15T02:04:20.998Z,21.13
2022-12-15T02:06:48.308Z,20.17
2022-12-15T02:09:16.492Z,21.23
2022-12-15T02:12:00.841Z,20.88
2022-12-15T02:14:45.749Z,22.30
2022-12-15T02:17:24.440Z,19.98
2022-12-15T02:20:35.512Z,20.67
2022-12-15T02:23:22.658Z,19.73
2022-12-15T02:26:20.538Z,19.23
2022-12-15T02:29:10.406Z,18.48
2022-12-15T02:31:50.504Z,20.55
2022-12-15T02:34:40.731Z,20.42
2022-12-15T02:37:22.587Z,19.27
2022-12-15T02:39:49.522Z,18.80
2022-12-15T02:42:16.836Z,20.05
2022-12-15T02:44:43.630Z,19.40
2022-12-15T02:47:38.938Z,18.83
2022-12-15T02:50:26.957Z,18.35
2022-12-15T02:53:20.930Z,18.52
2022-12-15T02:56:00.810Z,18.42
2022-12-15T02:58:37.295Z,18.10
2022-12-15T03:01:12.177Z,19.20
2022-12-15T03:03:41.002Z,17.55
2022-12-15T03:06:09.592Z,17.75
2022-12-15T03:08:36.444Z,18.70
2022-12-15T03:11:03.469Z,19.05
2022-12-15T03:13:30.759Z,19.60
2022-12-15T03:15:59.532Z,18.65
2022-12-15T03:18:27.180Z,17.92
2022-12-15T03:20:54.100Z,17.80
2022-12-15T03:23:22.999Z,17.73
2022-12-15T03:25:50.457Z,18.73
2022-12-15T03:28:18.034Z,17.85
2022-12-15T03:30:45.242Z,18.58
2022-12-15T03:33:17.444Z,16.98
2022-12-15T03:35:44.401Z,18.98
2022-12-15T03:38:11.479Z,18.23
2022-12-15T03:40:38.341Z,17.80
2022-12-15T03:43:05.291Z,16.50
2022-12-15T03:45:32.288Z,18.02
2022-12-15T03:47:59.195Z,18.35
2022-12-15T03:50:28.616Z,17.88
2022-12-15T03:53:00.442Z,17.77
2022-12-15T03:55:28.915Z,17.25
2022-12-15T03:57:56.301Z,18.38
2022-12-15T04:00:24.780Z,16.75
2022-12-15T04:02:52.013Z,16.50
2022-12-15T04:05:23.051Z,16.73
2022-12-15T04:07:50.005Z,16.40
2022-12-15T04:10:17.041Z,17.15
2022-12-15T04:12:43.951Z,17.17
2022-12-15T04:15:12.465Z,17.48
2022-12-15T04:17:39.414Z,16.83
2022-12-15T04:20:10.321Z,16.88
2022-12-15T04:22:39.546Z,17.33
2022-12-15T04:25:27.204Z,17.30
2022-12-15T04:28:13.078Z,17.30
2022-12-15T04:31:04.587Z,16.83
2022-12-15T04:33:50.467Z,19.15
2022-12-15T04:36:36.153Z,17.42
2022-12-15T04:39:23.988Z,16.42
2022-12-15T04:42:11.011Z,17.98
2022-12-15T04:44:56.310Z,16.83
2022-12-15T04:47:41.833Z,17.73
2022-12-15T04:50:27.612Z,16.10
2022-12-15T04:53:12.983Z,17.13
2022-12-15T04:55:58.317Z,16.42
2022-12-15T04:58:43.593Z,16.52
2022-12-15T05:01:29.079Z,17.58
2022-12-15T05:04:14.719Z,17.05
2022-12-15T05:07:00.051Z,16.95
2022-12-15T05:09:45.553Z,16.08
2022-12-15T05:12:31.029Z,16.88
2022-12-15T05:15:17.000Z,16.77
2022-12-15T05:18:02.492Z,15.80
2022-12-15T05:20:50.104Z,15.88
2022-12-15T05:23:35.793Z,16.20
2022-12-15T05:26:21.073Z,16.45
2022-12-15T05:29:06.649Z,16.08
2022-12-15T05:31:51.654Z,16.35
2022-12-15T05:34:23.448Z,16.45
2022-12-15T05:36:50.970Z,15.93
2022-12-15T05:39:18.055Z,14.73
2022-12-15T05:41:45.021Z,16.98
2022-12-15T05:44:12.371Z,15.85
2022-12-15T05:46:39.625Z,17.35
2022-12-15T05:49:08.616Z,15.32
2022-12-15T05:51:40.388Z,15.57
2022-12-15T05:54:09.060Z,16.48
2022-12-15T05:56:36.287Z,15.63
2022-12-15T05:59:03.690Z,16.25
2022-12-15T06:01:31.575Z,15.90
2022-12-15T06:03:59.453Z,16.60
2022-12-15T06:06:26.483Z,15.10
2022-12-15T06:08:53.505Z,16.00
2022-12-15T06:11:22.198Z,14.93
2022-12-15T06:13:49.336Z,15.55
2022-12-15T06:16:21.348Z,15.38
2022-12-15T06:18:54.868Z,16.23
2022-12-15T06:21:24.768Z,15.05
2022-12-15T06:23:52.635Z,15.93
2022-12-15T06:26:28.296Z,16.15
2022-12-15T06:28:57.535Z,15.13
2022-12-15T06:31:25.756Z,15.77
2022-12-15T06:34:01.026Z,15.30
2022-12-15T06:36:30.721Z,14.90
2022-12-15T06:39:02.359Z,15.15
2022-12-15T06:41:30.691Z,15.27
2022-12-15T06:43:58.004Z,16.15
2022-12-15T06:46:26.634Z,16.08
2022-12-15T06:48:53.722Z,16.15
2022-12-15T06:51:21.109Z,15.45
2022-12-15T06:53:54.204Z,15.27
2022-12-15T06:56:34.681Z,15.50
2022-12-15T06:59:06.390Z,17.83
2022-12-15T07:01:33.825Z,17.02
2022-12-15T07:04:02.933Z,15.77
2022-12-15T07:06:36.587Z,15.02
2022-12-15T07:09:07.164Z,17.35
2022-12-15T07:11:35.255Z,16.25
2022-12-15T07:14:02.243Z,15.23
2022-12-15T07:16:29.204Z,17.02
2022-12-15T07:18:56.128Z,20.67
2022-12-15T07:21:23.100Z,31.13
2022-12-15T07:23:55.285Z,24.50
2022-12-15T07:26:23.731Z,19.13
2022-12-15T07:28:51.277Z,18.58
2022-12-15T07:31:18.355Z,18.13
2022-12-15T07:33:45.528Z,18.08
2022-12-15T07:36:13.224Z,17.75
2022-12-15T07:38:40.123Z,18.17
2022-12-15T07:41:08.132Z,20.35
2022-12-15T07:43:36.202Z,24.65
2022-12-15T07:46:05.055Z,20.10
2022-12-15T07:48:32.901Z,18.33
2022-12-15T07:51:11.034Z,17.27
2022-12-15T07:53:42.503Z,16.80
2022-12-15T07:56:10.434Z,16.90
2022-12-15T07:58:38.751Z,17.05
2022-12-15T08:01:08.381Z,15.95
2022-12-15T08:03:36.699Z,18.00
2022-12-15T08:06:15.083Z,17.38
2022-12-15T08:08:44.360Z,18.35
2022-12-15T08:11:14.319Z,17.10
2022-12-15T08:16:31.501Z,15.65
2022-12-15T08:18:58.491Z,16.92
2022-12-15T08:21:25.428Z,16.90
2022-12-15T08:23:52.521Z,16.92
2022-12-15T08:26:22.675Z,16.35
2022-12-15T08:28:54.239Z,17.33
2022-12-15T08:31:23.649Z,17.92
2022-12-15T08:33:51.140Z,16.88
2022-12-15T08:36:18.991Z,18.05
2022-12-15T08:38:46.885Z,16.05
2022-12-15T08:41:17.109Z,17.02
2022-12-15T08:43:48.533Z,18.77
2022-12-15T08:46:17.909Z,16.65
2022-12-15T08:48:45.679Z,18.20
2022-12-15T08:51:14.877Z,17.05
2022-12-15T08:53:42.042Z,17.90
2022-12-15T08:56:18.156Z,16.77
2022-12-15T08:58:46.970Z,15.75
2022-12-15T09:01:22.375Z,17.70
2022-12-15T09:03:52.115Z,17.40
2022-12-15T09:06:22.394Z,18.10
2022-12-15T09:08:50.421Z,16.25
2022-12-15T09:11:18.137Z,17.77
2022-12-15T09:13:44.992Z,17.70
2022-12-15T09:16:15.303Z,17.73
2022-12-15T09:18:44.183Z,19.27
2022-12-15T09:21:11.931Z,18.30
2022-12-15T09:23:39.903Z,17.73
2022-12-15T09:26:14.669Z,17.67
2022-12-15T09:28:45.247Z,17.02
2022-12-15T09:31:23.573Z,19.55
2022-12-15T09:33:55.697Z,17.80
2022-12-15T09:36:23.353Z,17.10
2022-12-15T09:38:50.384Z,16.65
2022-12-15T09:41:23.791Z,17.08
2022-12-15T09:44:13.443Z,17.95
2022-12-15T09:47:06.063Z,18.58
2022-12-15T09:49:53.328Z,17.45
2022-12-15T09:52:22.802Z,18.38
2022-12-15T09:54:50.003Z,18.67
2022-12-15T09:57:32.005Z,17.27
2022-12-15T10:00:11.769Z,16.85
2022-12-15T10:03:16.589Z,17.35
2022-12-15T10:06:20.045Z,17.75
2022-12-15T10:09:09.333Z,17.88
2022-12-15T10:12:00.989Z,18.13
2022-12-15T10:14:35.279Z,17.90
2022-12-15T10:17:21.528Z,17.63
2022-12-15T10:20:00.477Z,19.38
2022-12-15T10:22:38.064Z,20.40
2022-12-15T10:28:25.173Z,19.25
2022-12-15T10:31:03.481Z,18.23
2022-12-15T10:33:39.855Z,17.67
2022-12-15T10:36:16.072Z,18.17
2022-12-15T10:41:34.451Z,18.05
2022-12-15T10:44:02.759Z,19.15
2022-12-15T10:46:31.992Z,18.50
2022-12-15T10:49:21.425Z,17.10
2022-12-15T10:51:54.435Z,18.40
2022-12-15T10:54:22.068Z,18.05
2022-12-15T10:56:54.667Z,18.17
2022-12-15T10:59:25.502Z,17.73
2022-12-15T11:01:53.169Z,18.02
2022-12-15T11:04:28.602Z,18.23
2022-12-15T11:07:01.416Z,17.77
2022-12-15T11:09:39.055Z,18.58
2022-12-15T11:12:40.892Z,18.02
2022-12-15T11:15:23.091Z,20.48
2022-12-15T11:18:13.679Z,20.40
2022-12-15T11:20:44.749Z,20.98
2022-12-15T11:23:48.759Z,20.60
2022-12-15T11:26:22.708Z,19.83
2022-12-15T11:28:58.928Z,21.42
2022-12-15T11:31:38.538Z,19.88
2022-12-15T11:34:17.627Z,19.80
2022-12-15T11:36:44.499Z,18.88
2022-12-15T11:39:23.972Z,18.50
2022-12-15T11:42:01.515Z,19.13
2022-12-15T11:44:38.537Z,18.95
2022-12-15T11:47:40.747Z,20.27
2022-12-15T11:50:34.149Z,19.25
2022-12-15T11:53:26.190Z,20.40
2022-12-15T11:56:14.533Z,19.73
2022-12-15T11:58:50.026Z,20.13
2022-12-15T12:01:55.274Z,18.98
2022-12-15T12:04:42.251Z,18.92
2022-12-15T12:07:38.447Z,20.80
2022-12-15T12:10:16.782Z,19.70
2022-12-15T12:12:56.199Z,21.13
2022-12-15T12:15:37.622Z,20.98
2022-12-15T12:18:10.812Z,20.45
2022-12-15T12:20:47.108Z,21.60
2022-12-15T12:23:24.386Z,20.35
2022-12-15T12:26:12.901Z,20.90
2022-12-15T12:32:04.202Z,21.70
2022-12-15T12:34:41.080Z,21.15
2022-12-15T12:37:23.851Z,21.67
2022-12-15T12:39:54.062Z,20.52
2022-12-15T12:42:34.038Z,20.77
2022-12-15T12:45:02.282Z,22.55
2022-12-15T12:47:38.354Z,22.23
2022-12-15T12:50:15.219Z,22.13
2022-12-15T12:52:55.166Z,23.65
2022-12-15T12:55:45.656Z,23.15
2022-12-15T12:58:32.145Z,22.30
2022-12-15T13:01:11.230Z,23.52
2022-12-15T13:03:43.577Z,22.73
2022-12-15T13:06:36.263Z,23.40
2022-12-15T13:09:23.204Z,22.50
2022-12-15T13:11:52.794Z,24.27
2022-12-15T13:14:26.400Z,22.55
2022-12-15T13:17:28.010Z,27.52
2022-12-15T13:20:01.404Z,22.77
2022-12-15T13:22:34.324Z,23.35
2022-12-15T13:25:03.127Z,23.00
2022-12-15T13:27:38.254Z,23.13
2022-12-15T13:30:07.761Z,23.95
2022-12-15T13:32:36.361Z,22.33
2022-12-15T13:35:12.349Z,22.35
2022-12-15T13:37:49.059Z,23.42
2022-12-15T13:40:35.399Z,23.67
2022-12-15T13:43:05.145Z,23.48
2022-12-15T13:45:42.972Z,21.65
2022-12-15T13:48:24.140Z,22.02
2022-12-15T13:51:37.241Z,23.00
2022-12-15T13:54:31.370Z,22.05
2022-12-15T13:57:03.512Z,23.08
2022-12-15T13:59:41.765Z,22.63
2022-12-15T14:02:27.443Z,22.73
2022-12-15T14:05:18.932Z,21.60
2022-12-15T14:07:54.371Z,23.70
2022-12-15T14:10:24.933Z,23.48
2022-12-15T14:12:53.215Z,24.13
2022-12-15T14:15:26.623Z,22.13
2022-12-15T14:17:56.118Z,23.00
2022-12-15T14:20:27.210Z,22.10
2022-12-15T14:22:55.014Z,21.08
2022-12-15T14:25:24.922Z,20.85
2022-12-15T14:27:52.032Z,20.83
2022-12-15T14:30:29.488Z,19.15
2022-12-15T14:33:18.484Z,17.50
2022-12-15T14:35:49.907Z,17.63
2022-12-15T14:38:21.945Z,18.55
2022-12-15T14:40:51.979Z,19.00
2022-12-15T14:43:29.148Z,18.27
2022-12-15T14:46:05.482Z,20.13
2022-12-15T14:48:41.556Z,19.58
2022-12-15T14:51:12.789Z,19.00
2022-12-15T14:53:41.841Z,20.48
2022-12-15T14:56:29.391Z,20.67
2022-12-15T14:59:00.310Z,18.85
2022-12-15T15:01:31.093Z,18.83
2022-12-15T15:03:06.627Z,19.10
2022-12-15T15:03:12.307Z,17.95
2022-12-15T15:03:12.732Z,19.70
2022-12-15T15:04:24.542Z,18.52
2022-12-15T15:06:56.017Z,16.48
2022-12-15T15:09:55.624Z,17.05
2022-12-15T15:12:25.890Z,16.42
2022-12-15T15:15:03.063Z,16.52
2022-12-15T15:17:37.796Z,17.85
2022-12-15T15:20:17.630Z,19.60
2022-12-15T15:23:02.316Z,20.20
2022-12-15T15:25:40.882Z,18.25
2022-12-15T15:28:20.089Z,17.95
2022-12-15T15:30:50.248Z,19.45
2022-12-15T15:33:19.384Z,18.27
2022-12-15T15:35:54.061Z,19.65
2022-12-15T15:38:26.998Z,19.52
2022-12-15T15:40:56.955Z,20.33
2022-12-15T15:43:25.787Z,18.70
2022-12-15T15:46:14.622Z,18.88
2022-12-15T15:48:54.402Z,17.83
2022-12-15T15:51:23.811Z,19.10
2022-12-15T15:53:50.918Z,20.08
2022-12-15T15:56:18.305Z,19.15
2022-12-15T15:58:45.423Z,19.75
2022-12-15T16:01:13.656Z,18.17
2022-12-15T16:03:41.720Z,17.92
2022-12-15T16:06:20.563Z,18.33
2022-12-15T16:08:51.920Z,18.05
2022-12-15T16:11:20.119Z,18.77
2022-12-15T16:13:47.135Z,19.17
2022-12-15T16:16:23.922Z,18.00
2022-12-15T16:18:51.103Z,19.67
2022-12-15T16:21:19.773Z,18.45
2022-12-15T16:23:48.476Z,19.48
2022-12-15T16:26:19.979Z,19.75
2022-12-15T16:28:47.028Z,18.45
2022-12-15T16:31:32.955Z,20.75
2022-12-15T16:34:05.214Z,19.55
2022-12-15T16:36:32.911Z,20.40
2022-12-15T16:39:01.237Z,19.35
2022-12-15T16:41:28.531Z,20.92
2022-12-15T16:43:55.499Z,20.02
2022-12-15T16:46:22.546Z,18.40
2022-12-15T16:48:49.497Z,18.73
2022-12-15T16:51:34.368Z,18.77
2022-12-15T16:54:01.716Z,19.55
2022-12-15T16:56:28.622Z,19.25
2022-12-15T16:59:15.585Z,19.45
2022-12-15T17:01:44.494Z,19.80
2022-12-15T17:04:12.179Z,21.05
2022-12-15T17:06:39.583Z,21.13
2022-12-15T17:09:08.860Z,21.30
2022-12-15T17:11:35.951Z,19.30
2022-12-15T17:14:03.106Z,19.30
2022-12-15T17:16:30.230Z,20.40
2022-12-15T17:18:57.336Z,20.63
2022-12-15T17:21:29.502Z,21.70
2022-12-15T17:24:04.325Z,21.02
2022-12-15T17:26:33.307Z,22.15
2022-12-15T17:29:07.944Z,27.10
2022-12-15T17:31:36.165Z,22.17
2022-12-15T17:34:30.747Z,22.15
2022-12-15T17:37:06.114Z,24.50
2022-12-15T17:39:34.945Z,20.77
2022-12-15T17:42:02.877Z,22.17
2022-12-15T17:44:35.561Z,23.00
2022-12-15T17:47:05.494Z,23.02
2022-12-15T17:49:35.968Z,20.58
2022-12-15T17:52:19.119Z,24.30
2022-12-15T17:54:46.114Z,22.73
2022-12-15T17:57:13.136Z,22.95
2022-12-15T17:59:40.344Z,22.58
2022-12-15T18:02:12.059Z,24.25
2022-12-15T18:04:39.273Z,26.35
2022-12-15T18:07:06.540Z,26.00
2022-12-15T18:09:33.422Z,25.58
2022-12-15T18:12:00.345Z,24.80
2022-12-15T18:14:27.845Z,25.13
2022-12-15T18:16:55.261Z,26.88
2022-12-15T18:19:23.302Z,26.00
2022-12-15T18:21:50.213Z,28.27
2022-12-15T18:24:19.301Z,26.17
2022-12-15T18:26:46.628Z,25.55
2022-12-15T18:29:17.844Z,25.30
2022-12-15T18:31:47.116Z,25.80
2022-12-15T18:34:17.598Z,28.88
2022-12-15T18:36:45.066Z,27.65
2022-12-15T18:39:20.452Z,28.00
2022-12-15T18:41:48.597Z,27.23
2022-12-15T18:44:26.494Z,28.50
2022-12-15T18:46:55.169Z,27.67
2022-12-15T18:49:24.595Z,28.80
2022-12-15T18:51:58.014Z,25.35
2022-12-15T18:54:30.939Z,26.70
2022-12-15T18:56:57.853Z,26.98
2022-12-15T18:59:27.399Z,25.50
2022-12-15T19:01:54.778Z,24.60
2022-12-15T19:04:21.767Z,26.50
2022-12-15T19:06:48.717Z,24.55
2022-12-15T19:09:23.369Z,23.92
2022-12-15T19:12:09.125Z,25.08
2022-12-15T19:14:42.714Z,25.15
2022-12-15T19:17:34.004Z,25.42
2022-12-15T19:20:37.158Z,24.85
2022-12-15T19:23:05.283Z,23.15
2022-12-15T19:25:32.965Z,25.38
2022-12-15T19:28:01.109Z,24.40
2022-12-15T19:30:30.758Z,23.20
2022-12-15T19:32:57.979Z,23.90
2022-12-15T19:35:27.403Z,26.73
2022-12-15T19:37:57.678Z,24.27
2022-12-15T19:40:27.756Z,21.92
2022-12-15T19:42:55.511Z,23.65
2022-12-15T19:45:25.987Z,26.92
2022-12-15T19:47:53.142Z,23.58
2022-12-15T19:50:29.330Z,26.63
2022-12-15T19:52:59.600Z,23.55
2022-12-15T19:55:34.747Z,22.02
2022-12-15T19:58:28.599Z,23.13
2022-12-15T20:01:01.137Z,23.45
2022-12-15T20:03:30.217Z,21.50
2022-12-15T20:05:59.554Z,20.48
2022-12-15T20:08:29.641Z,20.73
2022-12-15T20:10:57.416Z,21.02
2022-12-15T20:13:26.485Z,20.77
2022-12-15T20:15:54.685Z,20.75
2022-12-15T20:18:22.115Z,22.13
2022-12-15T20:20:50.946Z,23.40
2022-12-15T20:23:21.479Z,21.77
2022-12-15T20:25:48.549Z,33.47
2022-12-15T20:28:27.632Z,25.73
2022-12-15T20:30:56.292Z,25.55
2022-12-15T20:33:23.425Z,25.20
2022-12-15T20:35:51.627Z,26.13
2022-12-15T20:38:31.934Z,24.80
2022-12-15T20:41:01.533Z,23.33
2022-12-15T20:43:31.617Z,22.15
2022-12-15T20:46:19.261Z,20.52
2022-12-15T20:48:47.164Z,22.50
2022-12-15T20:51:26.305Z,22.35
2022-12-15T20:53:55.765Z,21.40
2022-12-15T20:56:23.426Z,20.73
2022-12-15T20:58:55.318Z,21.48
2022-12-15T21:01:29.114Z,20.63
2022-12-15T21:03:57.638Z,19.77
2022-12-15T21:06:25.676Z,20.58
2022-12-15T21:08:52.965Z,21.42
2022-12-15T21:11:32.709Z,19.75
2022-12-15T21:14:04.218Z,22.05
2022-12-15T21:16:32.997Z,21.58
2022-12-15T21:19:22.392Z,21.42
2022-12-15T21:21:54.955Z,21.95
2022-12-15T21:24:28.637Z,22.63
2022-12-15T21:26:56.191Z,21.23
2022-12-15T21:29:25.596Z,20.38
2022-12-15T21:31:52.769Z,23.05
2022-12-15T21:34:19.784Z,23.25
2022-12-15T21:36:51.788Z,20.58
2022-12-15T21:39:39.669Z,21.25
2022-12-15T21:42:12.062Z,20.92
2022-12-15T21:44:38.991Z,21.60
2022-12-15T21:47:25.651Z,23.73
2022-12-15T21:49:52.705Z,23.17
2022-12-15T21:52:19.951Z,25.00
2022-12-15T21:54:46.964Z,22.23
2022-12-15T21:57:13.910Z,23.55
2022-12-15T21:59:40.891Z,24.05
2022-12-15T22:02:25.550Z,25.02
2022-12-15T22:04:52.823Z,23.98
2022-12-15T22:07:22.220Z,24.60
2022-12-15T22:09:49.161Z,24.33
2022-12-15T22:12:20.308Z,24.63
2022-12-15T22:14:47.513Z,27.85
2022-12-15T22:17:20.171Z,25.73
2022-12-15T22:19:47.731Z,26.45
2022-12-15T22:22:15.577Z,25.80
2022-12-15T22:24:42.870Z,26.45
2022-12-15T22:27:32.506Z,25.83
2022-12-15T22:29:59.716Z,25.30
2022-12-15T22:32:26.641Z,27.17
2022-12-15T22:34:53.664Z,26.35
2022-12-15T22:37:20.587Z,25.25
2022-12-15T22:39:49.480Z,28.13
2022-12-15T22:42:18.860Z,26.80
2022-12-15T22:44:46.079Z,26.35
2022-12-15T22:47:13.149Z,24.63
2022-12-15T22:49:41.201Z,27.40
2022-12-15T22:52:19.631Z,25.30
2022-12-15T22:54:47.880Z,24.88
2022-12-15T22:57:26.727Z,26.38
2022-12-15T23:00:05.704Z,27.98
2022-12-15T23:02:36.933Z,26.13
2022-12-15T23:05:05.880Z,24.15
2022-12-15T23:07:34.037Z,26.35
2022-12-15T23:10:19.854Z,27.80
2022-12-15T23:12:47.307Z,25.52
2022-12-15T23:15:32.872Z,26.63
2022-12-15T23:17:59.846Z,25.38
2022-12-15T23:20:26.907Z,25.42
2022-12-15T23:22:54.096Z,26.65
2022-12-15T23:25:21.938Z,26.27
2022-12-15T23:27:48.819Z,24.90
2022-12-15T23:30:15.998Z,25.30
2022-12-15T23:32:43.361Z,26.83
2022-12-15T23:35:10.543Z,26.50
2022-12-15T23:37:37.474Z,25.20
2022-12-15T23:40:04.939Z,25.92
2022-12-15T23:42:31.930Z,26.75
2022-12-15T23:44:58.979Z,25.42
2022-12-15T23:47:25.909Z,27.10
2022-12-15T23:49:53.187Z,25.80
2022-12-15T23:52:20.520Z,26.48
2022-12-15T23:54:47.434Z,27.52
2022-12-15T23:57:14.411Z,25.63
2022-12-15T23:59:41.304Z,25.55
